sensor_id;sensor_type;location;lat;lon;timestamp;pressure;altitude;pressure_sealevel;temperature
48854;BMP280;34673;52.808;17.856;2023-07-24T00:00:40;99545.88;;;20.13
48854;BMP280;34673;52.808;17.856;2023-07-24T00:03:08;99552.53;;;20.19
48854;BMP280;34673;52.808;17.856;2023-07-24T00:05:35;99550.94;;;20.16
48854;BMP280;34673;52.808;17.856;2023-07-24T00:08:02;99555.47;;;20.14
48854;BMP280;34673;52.808;17.856;2023-07-24T00:10:29;99549.63;;;20.09
48854;BMP280;34673;52.808;17.856;2023-07-24T00:12:56;99526.91;;;19.93
48854;BMP280;34673;52.808;17.856;2023-07-24T00:15:23;99537.81;;;20.02
48854;BMP280;34673;52.808;17.856;2023-07-24T00:17:50;99536.13;;;20.01
48854;BMP280;34673;52.808;17.856;2023-07-24T00:20:18;99529.34;;;19.97
48854;BMP280;34673;52.808;17.856;2023-07-24T00:22:45;99539.84;;;19.97
48854;BMP280;34673;52.808;17.856;2023-07-24T00:25:12;99543.44;;;19.96
48854;BMP280;34673;52.808;17.856;2023-07-24T00:27:39;99541.72;;;19.95
48854;BMP280;34673;52.808;17.856;2023-07-24T00:30:07;99523.97;;;19.84
48854;BMP280;34673;52.808;17.856;2023-07-24T00:32:35;99538.53;;;19.89
48854;BMP280;34673;52.808;17.856;2023-07-24T00:35:02;99538.13;;;19.81
48854;BMP280;34673;52.808;17.856;2023-07-24T00:37:29;99544.31;;;19.80
48854;BMP280;34673;52.808;17.856;2023-07-24T00:39:56;99539.44;;;19.74
48854;BMP280;34673;52.808;17.856;2023-07-24T00:42:24;99554.81;;;19.80
48854;BMP280;34673;52.808;17.856;2023-07-24T00:44:51;99532.06;;;19.65
48854;BMP280;34673;52.808;17.856;2023-07-24T00:47:19;99560.25;;;19.77
48854;BMP280;34673;52.808;17.856;2023-07-24T00:49:47;99554.53;;;19.70
48854;BMP280;34673;52.808;17.856;2023-07-24T00:52:17;99547.81;;;19.65
48854;BMP280;34673;52.808;17.856;2023-07-24T00:54:51;99524.94;;;19.53
48854;BMP280;34673;52.808;17.856;2023-07-24T00:57:18;99540.31;;;19.59
48854;BMP280;34673;52.808;17.856;2023-07-24T00:59:45;99548.75;;;19.64
48854;BMP280;34673;52.808;17.856;2023-07-24T01:02:12;99538.44;;;19.61
48854;BMP280;34673;52.808;17.856;2023-07-24T01:04:39;99541.84;;;19.63
48854;BMP280;34673;52.808;17.856;2023-07-24T01:07:07;99543.69;;;19.61
48854;BMP280;34673;52.808;17.856;2023-07-24T01:09:33;99543.88;;;19.58
48854;BMP280;34673;52.808;17.856;2023-07-24T01:14:49;99535.59;;;19.49
48854;BMP280;34673;52.808;17.856;2023-07-24T01:17:23;99540.84;;;19.49
48854;BMP280;34673;52.808;17.856;2023-07-24T01:19:58;99511.44;;;19.29
48854;BMP280;34673;52.808;17.856;2023-07-24T01:26:12;99539.91;;;19.51
48854;BMP280;34673;52.808;17.856;2023-07-24T01:28:08;99537.09;;;19.54
48854;BMP280;34673;52.808;17.856;2023-07-24T01:30:35;99523.97;;;19.54
48854;BMP280;34673;52.808;17.856;2023-07-24T01:33:02;99530.00;;;19.56
48854;BMP280;34673;52.808;17.856;2023-07-24T01:35:31;99523.16;;;19.53
48854;BMP280;34673;52.808;17.856;2023-07-24T01:37:59;99519.88;;;19.49
48854;BMP280;34673;52.808;17.856;2023-07-24T01:40:26;99523.31;;;19.50
48854;BMP280;34673;52.808;17.856;2023-07-24T01:42:53;99530.44;;;19.48
48854;BMP280;34673;52.808;17.856;2023-07-24T01:45:21;99525.28;;;19.46
48854;BMP280;34673;52.808;17.856;2023-07-24T01:47:48;99521.25;;;19.41
48854;BMP280;34673;52.808;17.856;2023-07-24T01:50:15;99499.38;;;19.26
48854;BMP280;34673;52.808;17.856;2023-07-24T01:52:42;99519.72;;;19.37
48854;BMP280;34673;52.808;17.856;2023-07-24T01:55:11;99531.91;;;19.38
48854;BMP280;34673;52.808;17.856;2023-07-24T01:57:38;99528.34;;;19.39
48854;BMP280;34673;52.808;17.856;2023-07-24T02:00:05;99531.06;;;19.37
48854;BMP280;34673;52.808;17.856;2023-07-24T02:02:32;99529.38;;;19.36
48854;BMP280;34673;52.808;17.856;2023-07-24T02:05:00;99527.69;;;19.35
48854;BMP280;34673;52.808;17.856;2023-07-24T02:07:27;99526.00;;;19.34
48854;BMP280;34673;52.808;17.856;2023-07-24T02:09:55;99405.97;;;18.63
48854;BMP280;34673;52.808;17.856;2023-07-24T02:12:22;99525.34;;;19.31
48854;BMP280;34673;52.808;17.856;2023-07-24T02:14:49;99528.03;;;19.29
48854;BMP280;34673;52.808;17.856;2023-07-24T02:17:18;99529.88;;;19.27
48854;BMP280;34673;52.808;17.856;2023-07-24T02:19:46;99522.97;;;19.26
48854;BMP280;34673;52.808;17.856;2023-07-24T02:22:13;99524.81;;;19.24
48854;BMP280;34673;52.808;17.856;2023-07-24T02:24:40;99514.44;;;19.22
48854;BMP280;34673;52.808;17.856;2023-07-24T02:27:07;99505.47;;;19.11
48854;BMP280;34673;52.808;17.856;2023-07-24T02:29:34;99516.53;;;19.16
48854;BMP280;34673;52.808;17.856;2023-07-24T02:32:02;99518.25;;;19.17
48854;BMP280;34673;52.808;17.856;2023-07-24T02:34:29;99513.00;;;19.17
48854;BMP280;34673;52.808;17.856;2023-07-24T02:36:56;99508.03;;;19.12
48854;BMP280;34673;52.808;17.856;2023-07-24T02:39:23;99511.13;;;19.19
48854;BMP280;34673;52.808;17.856;2023-07-24T02:41:50;99505.88;;;19.19
48854;BMP280;34673;52.808;17.856;2023-07-24T02:44:17;99499.13;;;19.15
48854;BMP280;34673;52.808;17.856;2023-07-24T02:46:44;99505.72;;;19.22
48854;BMP280;34673;52.808;17.856;2023-07-24T02:49:11;99509.19;;;19.22
48854;BMP280;34673;52.808;17.856;2023-07-24T02:51:38;99510.97;;;19.22
48854;BMP280;34673;52.808;17.856;2023-07-24T02:54:05;99508.25;;;19.23
48854;BMP280;34673;52.808;17.856;2023-07-24T02:56:33;99502.34;;;19.20
48854;BMP280;34673;52.808;17.856;2023-07-24T02:59:00;99499.47;;;19.24
48854;BMP280;34673;52.808;17.856;2023-07-24T03:01:27;99474.97;;;19.10
48854;BMP280;34673;52.808;17.856;2023-07-24T03:03:54;99505.56;;;19.25
48854;BMP280;34673;52.808;17.856;2023-07-24T03:06:21;99512.28;;;19.29
48854;BMP280;34673;52.808;17.856;2023-07-24T03:08:48;99513.81;;;19.33
48854;BMP280;34673;52.808;17.856;2023-07-24T03:11:15;99480.78;;;19.15
48854;BMP280;34673;52.808;17.856;2023-07-24T03:13:42;99507.56;;;19.36
48854;BMP280;34673;52.808;17.856;2023-07-24T03:16:09;99508.22;;;19.39
48854;BMP280;34673;52.808;17.856;2023-07-24T03:18:37;99507.56;;;19.36
48854;BMP280;34673;52.808;17.856;2023-07-24T03:21:04;99510.59;;;19.44
48854;BMP280;34673;52.808;17.856;2023-07-24T03:23:31;99518.34;;;19.45
48854;BMP280;34673;52.808;17.856;2023-07-24T03:25:58;99517.31;;;19.48
48854;BMP280;34673;52.808;17.856;2023-07-24T03:28:25;99521.72;;;19.47
48854;BMP280;34673;52.808;17.856;2023-07-24T03:30:53;99508.53;;;19.49
48854;BMP280;34673;52.808;17.856;2023-07-24T03:33:21;99507.50;;;19.52
48854;BMP280;34673;52.808;17.856;2023-07-24T03:35:48;99507.50;;;19.52
48854;BMP280;34673;52.808;17.856;2023-07-24T03:38:15;99505.03;;;19.48
48854;BMP280;34673;52.808;17.856;2023-07-24T03:40:42;99513.41;;;19.55
48854;BMP280;34673;52.808;17.856;2023-07-24T03:43:09;99509.78;;;19.58
48854;BMP280;34673;52.808;17.856;2023-07-24T03:45:36;99513.22;;;19.58
48854;BMP280;34673;52.808;17.856;2023-07-24T03:48:04;99509.66;;;19.59
48854;BMP280;34673;52.808;17.856;2023-07-24T03:50:31;99509.41;;;19.64
48854;BMP280;34673;52.808;17.856;2023-07-24T03:52:58;99500.31;;;19.55
48854;BMP280;34673;52.808;17.856;2023-07-24T03:55:25;99507.72;;;19.63
48854;BMP280;34673;52.808;17.856;2023-07-24T03:57:53;99517.88;;;19.69
48854;BMP280;34673;52.808;17.856;2023-07-24T04:00:20;99522.38;;;19.67
48854;BMP280;34673;52.808;17.856;2023-07-24T04:02:47;99508.44;;;19.65
48854;BMP280;34673;52.808;17.856;2023-07-24T04:05:14;99516.19;;;19.68
48854;BMP280;34673;52.808;17.856;2023-07-24T04:07:41;99518.66;;;19.71
48854;BMP280;34673;52.808;17.856;2023-07-24T04:10:08;99516.03;;;19.71
48854;BMP280;34673;52.808;17.856;2023-07-24T04:12:35;99513.56;;;19.68
48854;BMP280;34673;52.808;17.856;2023-07-24T04:15:03;99501.53;;;19.64
48854;BMP280;34673;52.808;17.856;2023-07-24T04:17:30;99520.13;;;19.75
48854;BMP280;34673;52.808;17.856;2023-07-24T04:19:57;99513.09;;;19.76
48854;BMP280;34673;52.808;17.856;2023-07-24T04:22:25;99516.59;;;19.76
48854;BMP280;34673;52.808;17.856;2023-07-24T04:24:52;99507.78;;;19.77
48854;BMP280;34673;52.808;17.856;2023-07-24T04:27:19;99506.81;;;19.78
48854;BMP280;34673;52.808;17.856;2023-07-24T04:29:46;99476.44;;;19.60
48854;BMP280;34673;52.808;17.856;2023-07-24T04:32:13;99504.00;;;19.81
48854;BMP280;34673;52.808;17.856;2023-07-24T04:34:40;99507.22;;;19.86
48854;BMP280;34673;52.808;17.856;2023-07-24T04:37:07;99491.84;;;19.80
48854;BMP280;34673;52.808;17.856;2023-07-24T04:39:34;99510.41;;;19.91
48854;BMP280;34673;52.808;17.856;2023-07-24T04:42:01;99516.22;;;19.97
48854;BMP280;34673;52.808;17.856;2023-07-24T04:44:28;99509.19;;;19.97
48854;BMP280;34673;52.808;17.856;2023-07-24T04:46:55;99503.47;;;19.90
48854;BMP280;34673;52.808;17.856;2023-07-24T04:49:22;99508.34;;;19.97
48854;BMP280;34673;52.808;17.856;2023-07-24T04:51:50;99506.69;;;19.96
48854;BMP280;34673;52.808;17.856;2023-07-24T04:54:18;99505.16;;;19.91
48854;BMP280;34673;52.808;17.856;2023-07-24T04:56:45;99507.31;;;19.85
48854;BMP280;34673;52.808;17.856;2023-07-24T04:59:12;99507.59;;;19.80
48854;BMP280;34673;52.808;17.856;2023-07-24T05:01:39;99505.91;;;19.79
48854;BMP280;34673;52.808;17.856;2023-07-24T05:04:06;99504.19;;;19.78
48854;BMP280;34673;52.808;17.856;2023-07-24T05:06:33;99499.97;;;19.76
48854;BMP280;34673;52.808;17.856;2023-07-24T05:09:02;99502.53;;;19.77
48854;BMP280;34673;52.808;17.856;2023-07-24T05:11:29;99504.19;;;19.78
48854;BMP280;34673;52.808;17.856;2023-07-24T05:13:56;99488.81;;;19.72
48854;BMP280;34673;52.808;17.856;2023-07-24T05:16:23;99497.09;;;19.80
48854;BMP280;34673;52.808;17.856;2023-07-24T05:18:50;99499.72;;;19.80
48854;BMP280;34673;52.808;17.856;2023-07-24T05:21:17;99496.91;;;19.83
48854;BMP280;34673;52.808;17.856;2023-07-24T05:23:44;99500.09;;;19.88
48854;BMP280;34673;52.808;17.856;2023-07-24T05:26:11;99505.34;;;19.88
48854;BMP280;34673;52.808;17.856;2023-07-24T05:28:38;99513.13;;;19.90
48854;BMP280;34673;52.808;17.856;2023-07-24T05:31:06;99503.00;;;19.84
48854;BMP280;34673;52.808;17.856;2023-07-24T05:33:34;99514.50;;;19.81
48854;BMP280;34673;52.808;17.856;2023-07-24T05:36:03;99513.41;;;19.85
48854;BMP280;34673;52.808;17.856;2023-07-24T05:38:30;99509.09;;;19.84
48854;BMP280;34673;52.808;17.856;2023-07-24T05:41:02;99498.69;;;19.83
48854;BMP280;34673;52.808;17.856;2023-07-24T05:43:30;99518.97;;;19.95
48854;BMP280;34673;52.808;17.856;2023-07-24T05:45:58;99520.56;;;19.98
48854;BMP280;34673;52.808;17.856;2023-07-24T05:48:25;99511.75;;;19.99
48854;BMP280;34673;52.808;17.856;2023-07-24T05:50:53;99507.97;;;20.03
48854;BMP280;34673;52.808;17.856;2023-07-24T05:53:20;99516.34;;;20.09
48854;BMP280;34673;52.808;17.856;2023-07-24T05:55:56;99503.41;;;20.06
48854;BMP280;34673;52.808;17.856;2023-07-24T05:58:23;99509.75;;;20.17
48854;BMP280;34673;52.808;17.856;2023-07-24T06:00:50;99507.88;;;20.19
48854;BMP280;34673;52.808;17.856;2023-07-24T06:03:17;99504.63;;;20.15
48854;BMP280;34673;52.808;17.856;2023-07-24T06:05:45;99499.56;;;20.12
48854;BMP280;34673;52.808;17.856;2023-07-24T06:08:12;99497.47;;;20.03
48854;BMP280;34673;52.808;17.856;2023-07-24T06:10:39;99509.88;;;20.01
48854;BMP280;34673;52.808;17.856;2023-07-24T06:13:06;99504.63;;;20.01
48854;BMP280;34673;52.808;17.856;2023-07-24T06:15:33;99487.91;;;20.02
48854;BMP280;34673;52.808;17.856;2023-07-24T06:18:00;99494.97;;;20.01
48854;BMP280;34673;52.808;17.856;2023-07-24T06:20:27;99485.47;;;19.99
48854;BMP280;34673;52.808;17.856;2023-07-24T06:22:54;99490.75;;;19.99
48854;BMP280;34673;52.808;17.856;2023-07-24T06:25:21;99502.06;;;19.99
48854;BMP280;34673;52.808;17.856;2023-07-24T06:27:49;99493.94;;;20.04
48854;BMP280;34673;52.808;17.856;2023-07-24T06:30:16;99449.66;;;19.83
48854;BMP280;34673;52.808;17.856;2023-07-24T06:32:43;99479.31;;;20.14
48854;BMP280;34673;52.808;17.856;2023-07-24T06:35:10;99458.09;;;20.17
48854;BMP280;34673;52.808;17.856;2023-07-24T06:37:38;99467.00;;;20.29
48854;BMP280;34673;52.808;17.856;2023-07-24T06:40:07;99455.06;;;20.37
48854;BMP280;34673;52.808;17.856;2023-07-24T06:42:35;99453.00;;;20.43
48854;BMP280;34673;52.808;17.856;2023-07-24T06:45:02;99440.59;;;20.45
48854;BMP280;34673;52.808;17.856;2023-07-24T06:47:34;99441.88;;;20.52
48854;BMP280;34673;52.808;17.856;2023-07-24T06:50:01;99442.38;;;20.58
48854;BMP280;34673;52.808;17.856;2023-07-24T06:52:29;99444.72;;;20.63
48854;BMP280;34673;52.808;17.856;2023-07-24T06:54:56;99441.91;;;20.66
48854;BMP280;34673;52.808;17.856;2023-07-24T06:57:25;99438.22;;;20.69
48854;BMP280;34673;52.808;17.856;2023-07-24T06:59:52;99438.66;;;20.75
48854;BMP280;34673;52.808;17.856;2023-07-24T07:02:21;99433.97;;;20.80
48854;BMP280;34673;52.808;17.856;2023-07-24T07:04:48;99426.06;;;20.80
48854;BMP280;34673;52.808;17.856;2023-07-24T07:07:40;99430.28;;;20.83
48854;BMP280;34673;52.808;17.856;2023-07-24T07:10:08;99432.81;;;20.85
48854;BMP280;34673;52.808;17.856;2023-07-24T07:12:35;99440.50;;;20.88
48854;BMP280;34673;52.808;17.856;2023-07-24T07:15:02;99435.78;;;20.93
48854;BMP280;34673;52.808;17.856;2023-07-24T07:17:29;99431.47;;;20.92
48854;BMP280;34673;52.808;17.856;2023-07-24T07:19:56;99425.28;;;20.93
48854;BMP280;34673;52.808;17.856;2023-07-24T07:22:24;99436.84;;;21.03
48854;BMP280;34673;52.808;17.856;2023-07-24T07:24:51;99429.72;;;21.05
48854;BMP280;34673;52.808;17.856;2023-07-24T07:27:18;99422.28;;;21.12
48854;BMP280;34673;52.808;17.856;2023-07-24T07:29:45;99420.28;;;21.15
48854;BMP280;34673;52.808;17.856;2023-07-24T07:32:12;99425.31;;;21.18
48854;BMP280;34673;52.808;17.856;2023-07-24T07:34:43;99413.25;;;21.29
48854;BMP280;34673;52.808;17.856;2023-07-24T07:37:10;99414.84;;;21.31
48854;BMP280;34673;52.808;17.856;2023-07-24T07:39:37;99415.88;;;21.29
48854;BMP280;34673;52.808;17.856;2023-07-24T07:42:04;99410.63;;;21.29
48854;BMP280;34673;52.808;17.856;2023-07-24T07:44:47;99423.69;;;21.43
48854;BMP280;34673;52.808;17.856;2023-07-24T07:47:16;99411.69;;;21.52
48854;BMP280;34673;52.808;17.856;2023-07-24T07:49:44;99409.41;;;21.47
48854;BMP280;34673;52.808;17.856;2023-07-24T07:52:11;99400.88;;;21.56
48854;BMP280;34673;52.808;17.856;2023-07-24T07:54:39;99395.28;;;21.74
48854;BMP280;34673;52.808;17.856;2023-07-24T07:57:07;99384.06;;;21.96
48854;BMP280;34673;52.808;17.856;2023-07-24T07:59:34;99387.06;;;22.28
48854;BMP280;34673;52.808;17.856;2023-07-24T08:02:02;99396.00;;;22.86
48854;BMP280;34673;52.808;17.856;2023-07-24T08:04:37;99387.53;;;23.29
48854;BMP280;34673;52.808;17.856;2023-07-24T08:07:10;99385.88;;;23.51
48854;BMP280;34673;52.808;17.856;2023-07-24T08:09:37;99387.56;;;23.52
48854;BMP280;34673;52.808;17.856;2023-07-24T08:12:05;99387.84;;;23.71
48854;BMP280;34673;52.808;17.856;2023-07-24T08:14:34;99375.34;;;23.96
48854;BMP280;34673;52.808;17.856;2023-07-24T08:17:02;99370.88;;;24.19
48854;BMP280;34673;52.808;17.856;2023-07-24T08:19:29;99377.69;;;24.32
48854;BMP280;34673;52.808;17.856;2023-07-24T08:21:56;99353.03;;;24.43
48854;BMP280;34673;52.808;17.856;2023-07-24T08:24:23;99367.28;;;24.63
48854;BMP280;34673;52.808;17.856;2023-07-24T08:26:50;99362.19;;;24.71
48854;BMP280;34673;52.808;17.856;2023-07-24T08:29:23;99370.38;;;24.68
48854;BMP280;34673;52.808;17.856;2023-07-24T08:31:50;99364.13;;;24.69
48854;BMP280;34673;52.808;17.856;2023-07-24T08:34:17;99361.00;;;24.64
48854;BMP280;34673;52.808;17.856;2023-07-24T08:36:45;99351.44;;;24.52
48854;BMP280;34673;52.808;17.856;2023-07-24T08:39:12;99340.31;;;24.48
48854;BMP280;34673;52.808;17.856;2023-07-24T08:41:39;99356.38;;;24.57
48854;BMP280;34673;52.808;17.856;2023-07-24T08:44:10;99346.22;;;24.62
48854;BMP280;34673;52.808;17.856;2023-07-24T08:46:50;99336.25;;;25.07
48854;BMP280;34673;52.808;17.856;2023-07-24T08:49:55;99312.59;;;25.57
48854;BMP280;34673;52.808;17.856;2023-07-24T08:52:39;99329.22;;;26.09
48854;BMP280;34673;52.808;17.856;2023-07-24T09:03:24;99325.34;;;26.43
48854;BMP280;34673;52.808;17.856;2023-07-24T09:06:07;99317.53;;;26.41
48854;BMP280;34673;52.808;17.856;2023-07-24T09:09:15;99326.19;;;26.82
48854;BMP280;34673;52.808;17.856;2023-07-24T09:12:15;99283.16;;;26.88
48854;BMP280;34673;52.808;17.856;2023-07-24T09:18:44;99317.81;;;27.81
48854;BMP280;34673;52.808;17.856;2023-07-24T09:21:50;99307.91;;;28.01
48854;BMP280;34673;52.808;17.856;2023-07-24T09:24:24;99305.47;;;28.25
48854;BMP280;34673;52.808;17.856;2023-07-24T09:27:12;99306.75;;;28.49
48854;BMP280;34673;52.808;17.856;2023-07-24T09:30:34;99308.84;;;28.63
48854;BMP280;34673;52.808;17.856;2023-07-24T09:33:58;99301.88;;;28.62
48854;BMP280;34673;52.808;17.856;2023-07-24T09:40:37;99311.06;;;28.32
48854;BMP280;34673;52.808;17.856;2023-07-24T09:43:57;99308.19;;;27.98
48854;BMP280;34673;52.808;17.856;2023-07-24T09:49:50;99285.38;;;27.77
48854;BMP280;34673;52.808;17.856;2023-07-24T09:52:18;99291.38;;;28.07
48854;BMP280;34673;52.808;17.856;2023-07-24T09:55:11;99281.63;;;27.98
48854;BMP280;34673;52.808;17.856;2023-07-24T09:57:41;99268.84;;;27.83
48854;BMP280;34673;52.808;17.856;2023-07-24T10:00:11;99260.34;;;27.98
48854;BMP280;34673;52.808;17.856;2023-07-24T10:02:39;99269.41;;;28.23
48854;BMP280;34673;52.808;17.856;2023-07-24T10:05:07;99252.53;;;28.32
48854;BMP280;34673;52.808;17.856;2023-07-24T10:07:37;99264.16;;;28.13
48854;BMP280;34673;52.808;17.856;2023-07-24T10:10:08;99267.81;;;28.12
48854;BMP280;34673;52.808;17.856;2023-07-24T10:12:44;99251.56;;;28.15
48854;BMP280;34673;52.808;17.856;2023-07-24T10:15:19;99257.50;;;28.45
48854;BMP280;34673;52.808;17.856;2023-07-24T10:18:07;99253.22;;;28.52
48854;BMP280;34673;52.808;17.856;2023-07-24T10:21:04;99259.75;;;28.40
48854;BMP280;34673;52.808;17.856;2023-07-24T10:23:34;99256.56;;;28.18
48854;BMP280;34673;52.808;17.856;2023-07-24T10:26:03;99245.63;;;28.21
48854;BMP280;34673;52.808;17.856;2023-07-24T10:28:33;99238.19;;;28.43
48854;BMP280;34673;52.808;17.856;2023-07-24T10:31:01;99247.41;;;28.75
48854;BMP280;34673;52.808;17.856;2023-07-24T10:33:30;99208.66;;;28.72
48854;BMP280;34673;52.808;17.856;2023-07-24T10:36:07;99223.81;;;28.80
48854;BMP280;34673;52.808;17.856;2023-07-24T10:38:39;99252.09;;;28.81
48854;BMP280;34673;52.808;17.856;2023-07-24T10:41:07;99246.78;;;28.81
48854;BMP280;34673;52.808;17.856;2023-07-24T10:43:50;99257.75;;;29.04
48854;BMP280;34673;52.808;17.856;2023-07-24T10:46:20;99244.16;;;29.15
48854;BMP280;34673;52.808;17.856;2023-07-24T10:48:50;99241.03;;;29.20
48854;BMP280;34673;52.808;17.856;2023-07-24T10:51:21;99241.13;;;29.44
48854;BMP280;34673;52.808;17.856;2023-07-24T10:53:48;99228.13;;;29.41
48854;BMP280;34673;52.808;17.856;2023-07-24T10:56:16;99232.50;;;29.58
48854;BMP280;34673;52.808;17.856;2023-07-24T10:58:44;99242.59;;;29.73
48854;BMP280;34673;52.808;17.856;2023-07-24T11:01:12;99216.28;;;29.70
48854;BMP280;34673;52.808;17.856;2023-07-24T11:03:42;99230.94;;;29.82
48854;BMP280;34673;52.808;17.856;2023-07-24T11:06:17;99219.63;;;29.88
48854;BMP280;34673;52.808;17.856;2023-07-24T11:08:56;99219.94;;;29.85
48854;BMP280;34673;52.808;17.856;2023-07-24T11:11:34;99244.28;;;29.90
48854;BMP280;34673;52.808;17.856;2023-07-24T11:14:02;99229.97;;;29.91
48854;BMP280;34673;52.808;17.856;2023-07-24T11:16:30;99230.63;;;30.01
48854;BMP280;34673;52.808;17.856;2023-07-24T11:18:58;99212.13;;;29.84
48854;BMP280;34673;52.808;17.856;2023-07-24T11:21:26;99216.28;;;29.78
48854;BMP280;34673;52.808;17.856;2023-07-24T11:23:54;99228.28;;;29.90
48854;BMP280;34673;52.808;17.856;2023-07-24T11:26:23;99221.63;;;29.86
48854;BMP280;34673;52.808;17.856;2023-07-24T11:28:52;99215.97;;;29.89
48854;BMP280;34673;52.808;17.856;2023-07-24T11:31:19;99204.25;;;29.66
48854;BMP280;34673;52.808;17.856;2023-07-24T11:33:51;99206.53;;;29.60
48854;BMP280;34673;52.808;17.856;2023-07-24T11:36:19;99216.28;;;29.70
48854;BMP280;34673;52.808;17.856;2023-07-24T11:38:47;99213.66;;;29.86
48854;BMP280;34673;52.808;17.856;2023-07-24T11:41:17;99204.66;;;30.03
48854;BMP280;34673;52.808;17.856;2023-07-24T11:43:49;99209.31;;;30.18
48854;BMP280;34673;52.808;17.856;2023-07-24T11:46:28;99198.66;;;30.18
48854;BMP280;34673;52.808;17.856;2023-07-24T11:48:55;99198.03;;;30.24
48854;BMP280;34673;52.808;17.856;2023-07-24T11:51:25;99191.34;;;30.28
48854;BMP280;34673;52.808;17.856;2023-07-24T11:54:09;99199.69;;;30.33
48854;BMP280;34673;52.808;17.856;2023-07-24T11:56:41;99198.34;;;30.54
48854;BMP280;34673;52.808;17.856;2023-07-24T11:59:11;99195.31;;;30.65
48854;BMP280;34673;52.808;17.856;2023-07-24T12:01:45;99193.16;;;30.44
48854;BMP280;34673;52.808;17.856;2023-07-24T12:04:14;99204.66;;;30.12
48854;BMP280;34673;52.808;17.856;2023-07-24T12:06:42;99199.63;;;29.76
48854;BMP280;34673;52.808;17.856;2023-07-24T12:09:10;99190.56;;;29.60
48854;BMP280;34673;52.808;17.856;2023-07-24T12:11:44;99184.22;;;29.53
48854;BMP280;34673;52.808;17.856;2023-07-24T12:14:14;99151.50;;;29.27
48854;BMP280;34673;52.808;17.856;2023-07-24T12:16:42;99147.50;;;29.31
48854;BMP280;34673;52.808;17.856;2023-07-24T12:19:09;99131.34;;;29.24
48854;BMP280;34673;52.808;17.856;2023-07-24T12:21:36;99112.94;;;28.97
48854;BMP280;34673;52.808;17.856;2023-07-24T12:24:04;99153.78;;;29.13
48854;BMP280;34673;52.808;17.856;2023-07-24T12:26:31;99176.78;;;29.23
48854;BMP280;34673;52.808;17.856;2023-07-24T12:28:58;99160.34;;;29.01
48854;BMP280;34673;52.808;17.856;2023-07-24T12:31:27;99162.34;;;28.91
48854;BMP280;34673;52.808;17.856;2023-07-24T12:33:56;99126.88;;;28.56
48854;BMP280;34673;52.808;17.856;2023-07-24T12:36:23;99165.16;;;28.63
48854;BMP280;34673;52.808;17.856;2023-07-24T12:38:50;99163.50;;;28.62
48854;BMP280;34673;52.808;17.856;2023-07-24T12:41:18;99157.13;;;28.55
48854;BMP280;34673;52.808;17.856;2023-07-24T12:43:45;99131.78;;;28.43
48854;BMP280;34673;52.808;17.856;2023-07-24T12:46:12;99139.69;;;28.61
48854;BMP280;34673;52.808;17.856;2023-07-24T12:48:40;99134.19;;;28.54
48854;BMP280;34673;52.808;17.856;2023-07-24T12:51:07;99128.63;;;28.73
48854;BMP280;34673;52.808;17.856;2023-07-24T12:53:36;99115.03;;;28.85
48854;BMP280;34673;52.808;17.856;2023-07-24T12:56:22;99108.44;;;28.97
48854;BMP280;34673;52.808;17.856;2023-07-24T12:58:50;99058.59;;;28.73
48854;BMP280;34673;52.808;17.856;2023-07-24T13:01:17;99046.16;;;28.82
48854;BMP280;34673;52.808;17.856;2023-07-24T13:03:44;99102.22;;;29.23
48854;BMP280;34673;52.808;17.856;2023-07-24T13:06:12;99095.91;;;29.24
48854;BMP280;34673;52.808;17.856;2023-07-24T13:08:39;99078.16;;;28.98
48854;BMP280;34673;52.808;17.856;2023-07-24T13:11:07;99098.19;;;29.10
48854;BMP280;34673;52.808;17.856;2023-07-24T13:13:34;99091.19;;;29.09
48854;BMP280;34673;52.808;17.856;2023-07-24T13:16:03;99057.84;;;28.89
48854;BMP280;34673;52.808;17.856;2023-07-24T13:18:30;99096.88;;;29.23
48854;BMP280;34673;52.808;17.856;2023-07-24T13:20:58;99097.22;;;29.20
48854;BMP280;34673;52.808;17.856;2023-07-24T13:23:25;99071.56;;;29.10
48854;BMP280;34673;52.808;17.856;2023-07-24T13:25:53;99090.25;;;29.35
48854;BMP280;34673;52.808;17.856;2023-07-24T13:28:28;99043.94;;;29.20
48854;BMP280;34673;52.808;17.856;2023-07-24T13:31:20;99099.22;;;29.34
48854;BMP280;34673;52.808;17.856;2023-07-24T13:33:48;99026.22;;;28.86
48854;BMP280;34673;52.808;17.856;2023-07-24T13:36:16;99091.44;;;29.32
48854;BMP280;34673;52.808;17.856;2023-07-24T13:38:45;99045.94;;;29.17
48854;BMP280;34673;52.808;17.856;2023-07-24T13:41:12;99074.97;;;29.53
48854;BMP280;34673;52.808;17.856;2023-07-24T13:43:39;99037.81;;;29.35
48854;BMP280;34673;52.808;17.856;2023-07-24T13:46:10;99074.31;;;29.59
48854;BMP280;34673;52.808;17.856;2023-07-24T13:48:40;99056.31;;;29.53
48854;BMP280;34673;52.808;17.856;2023-07-24T13:51:09;99084.66;;;29.71
48854;BMP280;34673;52.808;17.856;2023-07-24T13:53:37;99013.00;;;29.19
48854;BMP280;34673;52.808;17.856;2023-07-24T13:56:05;99052.28;;;29.25
48854;BMP280;34673;52.808;17.856;2023-07-24T13:58:33;99048.25;;;29.12
48854;BMP280;34673;52.808;17.856;2023-07-24T14:01:00;99074.94;;;29.29
48854;BMP280;34673;52.808;17.856;2023-07-24T14:03:28;99063.63;;;29.35
48854;BMP280;34673;52.808;17.856;2023-07-24T14:05:56;99048.63;;;29.42
48854;BMP280;34673;52.808;17.856;2023-07-24T14:08:24;99054.63;;;29.52
48854;BMP280;34673;52.808;17.856;2023-07-24T14:10:52;99025.66;;;29.41
48854;BMP280;34673;52.808;17.856;2023-07-24T14:13:20;99007.00;;;29.25
48854;BMP280;34673;52.808;17.856;2023-07-24T14:15:47;99028.16;;;29.26
48854;BMP280;34673;52.808;17.856;2023-07-24T14:18:14;99020.97;;;29.10
48854;BMP280;34673;52.808;17.856;2023-07-24T14:20:42;99022.59;;;29.03
48854;BMP280;34673;52.808;17.856;2023-07-24T14:23:09;99019.25;;;29.01
48854;BMP280;34673;52.808;17.856;2023-07-24T14:25:37;99006.25;;;28.90
48854;BMP280;34673;52.808;17.856;2023-07-24T14:28:04;99012.91;;;28.86
48854;BMP280;34673;52.808;17.856;2023-07-24T14:30:31;99009.59;;;28.92
48854;BMP280;34673;52.808;17.856;2023-07-24T14:32:58;98976.44;;;28.70
48854;BMP280;34673;52.808;17.856;2023-07-24T14:35:26;98961.09;;;28.56